sensor_id;sensor_type;location;lat;lon;timestamp;temperature;humidity
13328;DHT22;6733;51.044;3.746;2023-04-09T00:01:59;8.60;99.90
13328;DHT22;6733;51.044;3.746;2023-04-09T00:04:25;8.60;99.90
13328;DHT22;6733;51.044;3.746;2023-04-09T00:06:51;8.50;99.90
13328;DHT22;6733;51.044;3.746;2023-04-09T00:09:18;8.50;99.90
13328;DHT22;6733;51.044;3.746;2023-04-09T00:11:45;8.50;99.90
13328;DHT22;6733;51.044;3.746;2023-04-09T00:14:12;8.50;99.90
13328;DHT22;6733;51.044;3.746;2023-04-09T00:16:38;8.50;99.90
13328;DHT22;6733;51.044;3.746;2023-04-09T00:19:05;8.40;99.90
13328;DHT22;6733;51.044;3.746;2023-04-09T00:21:32;8.50;99.90
13328;DHT22;6733;51.044;3.746;2023-04-09T00:23:58;8.40;99.90
13328;DHT22;6733;51.044;3.746;2023-04-09T00:26:25;8.40;99.90
13328;DHT22;6733;51.044;3.746;2023-04-09T00:28:51;8.40;99.90
13328;DHT22;6733;51.044;3.746;2023-04-09T00:31:17;8.30;99.90
13328;DHT22;6733;51.044;3.746;2023-04-09T00:33:44;8.30;99.90
13328;DHT22;6733;51.044;3.746;2023-04-09T00:36:11;8.20;99.90
13328;DHT22;6733;51.044;3.746;2023-04-09T00:38:37;8.20;99.90
13328;DHT22;6733;51.044;3.746;2023-04-09T00:41:03;8.30;99.90
13328;DHT22;6733;51.044;3.746;2023-04-09T00:43:29;8.30;99.90
13328;DHT22;6733;51.044;3.746;2023-04-09T00:45:57;8.20;99.90
13328;DHT22;6733;51.044;3.746;2023-04-09T00:48:24;8.20;99.90
13328;DHT22;6733;51.044;3.746;2023-04-09T00:50:51;8.20;99.90
13328;DHT22;6733;51.044;3.746;2023-04-09T00:53:17;8.20;99.90
13328;DHT22;6733;51.044;3.746;2023-04-09T00:55:45;8.20;99.90
13328;DHT22;6733;51.044;3.746;2023-04-09T00:58:11;8.20;99.90
13328;DHT22;6733;51.044;3.746;2023-04-09T01:00:38;8.20;99.90
13328;DHT22;6733;51.044;3.746;2023-04-09T01:03:05;8.10;99.90
13328;DHT22;6733;51.044;3.746;2023-04-09T01:08:32;8.10;99.90
13328;DHT22;6733;51.044;3.746;2023-04-09T01:11:13;8.10;99.90
13328;DHT22;6733;51.044;3.746;2023-04-09T01:13:53;8.10;99.90
13328;DHT22;6733;51.044;3.746;2023-04-09T01:16:23;8.10;99.90
13328;DHT22;6733;51.044;3.746;2023-04-09T01:19:28;8.10;99.90
13328;DHT22;6733;51.044;3.746;2023-04-09T01:21:47;8.00;99.90
13328;DHT22;6733;51.044;3.746;2023-04-09T01:25:18;8.00;99.90
13328;DHT22;6733;51.044;3.746;2023-04-09T01:27:18;8.00;99.90
13328;DHT22;6733;51.044;3.746;2023-04-09T01:29:46;7.90;99.90
13328;DHT22;6733;51.044;3.746;2023-04-09T01:32:18;7.90;99.90
13328;DHT22;6733;51.044;3.746;2023-04-09T01:34:47;7.90;99.90
13328;DHT22;6733;51.044;3.746;2023-04-09T01:37:15;7.90;99.90
13328;DHT22;6733;51.044;3.746;2023-04-09T01:39:42;7.90;99.90
13328;DHT22;6733;51.044;3.746;2023-04-09T01:42:10;7.90;99.90
13328;DHT22;6733;51.044;3.746;2023-04-09T01:44:38;7.90;99.90
13328;DHT22;6733;51.044;3.746;2023-04-09T01:47:07;7.90;99.90
13328;DHT22;6733;51.044;3.746;2023-04-09T01:49:34;7.90;99.90
13328;DHT22;6733;51.044;3.746;2023-04-09T01:52:01;7.90;99.90
13328;DHT22;6733;51.044;3.746;2023-04-09T01:54:28;7.90;99.90
13328;DHT22;6733;51.044;3.746;2023-04-09T01:56:58;7.90;99.90
13328;DHT22;6733;51.044;3.746;2023-04-09T01:59:24;7.90;99.90
13328;DHT22;6733;51.044;3.746;2023-04-09T02:02:00;7.90;99.90
13328;DHT22;6733;51.044;3.746;2023-04-09T02:04:33;7.80;99.90
13328;DHT22;6733;51.044;3.746;2023-04-09T02:09:39;7.80;99.90
13328;DHT22;6733;51.044;3.746;2023-04-09T02:12:11;7.80;99.90
13328;DHT22;6733;51.044;3.746;2023-04-09T02:14:39;7.80;99.90
13328;DHT22;6733;51.044;3.746;2023-04-09T02:17:06;7.80;99.90
13328;DHT22;6733;51.044;3.746;2023-04-09T02:19:39;7.80;99.90
13328;DHT22;6733;51.044;3.746;2023-04-09T02:22:06;7.80;99.90
13328;DHT22;6733;51.044;3.746;2023-04-09T02:24:32;7.80;99.90
13328;DHT22;6733;51.044;3.746;2023-04-09T02:26:59;7.80;99.90
13328;DHT22;6733;51.044;3.746;2023-04-09T02:29:25;7.80;99.90
13328;DHT22;6733;51.044;3.746;2023-04-09T02:39:16;7.70;99.90
13328;DHT22;6733;51.044;3.746;2023-04-09T02:41:42;7.70;99.90
13328;DHT22;6733;51.044;3.746;2023-04-09T02:44:09;7.70;99.90
13328;DHT22;6733;51.044;3.746;2023-04-09T02:46:35;7.70;99.90
13328;DHT22;6733;51.044;3.746;2023-04-09T02:49:01;7.70;99.90
13328;DHT22;6733;51.044;3.746;2023-04-09T02:51:28;7.70;99.90
13328;DHT22;6733;51.044;3.746;2023-04-09T02:53:54;7.60;99.90
13328;DHT22;6733;51.044;3.746;2023-04-09T02:56:21;7.60;99.90
13328;DHT22;6733;51.044;3.746;2023-04-09T02:58:47;7.60;99.90
13328;DHT22;6733;51.044;3.746;2023-04-09T03:01:16;7.60;99.90
13328;DHT22;6733;51.044;3.746;2023-04-09T03:03:42;7.50;99.90
13328;DHT22;6733;51.044;3.746;2023-04-09T03:06:09;7.50;99.90
13328;DHT22;6733;51.044;3.746;2023-04-09T03:08:35;7.50;99.90
13328;DHT22;6733;51.044;3.746;2023-04-09T03:11:01;7.60;99.90
13328;DHT22;6733;51.044;3.746;2023-04-09T03:13:28;7.50;99.90
13328;DHT22;6733;51.044;3.746;2023-04-09T03:15:54;7.60;99.90
13328;DHT22;6733;51.044;3.746;2023-04-09T03:18:21;7.50;99.90
13328;DHT22;6733;51.044;3.746;2023-04-09T03:20:47;7.60;99.90
13328;DHT22;6733;51.044;3.746;2023-04-09T03:23:13;7.50;99.90
13328;DHT22;6733;51.044;3.746;2023-04-09T03:25:40;7.50;99.90
13328;DHT22;6733;51.044;3.746;2023-04-09T03:28:06;7.50;99.90
13328;DHT22;6733;51.044;3.746;2023-04-09T03:30:33;7.50;99.90
13328;DHT22;6733;51.044;3.746;2023-04-09T03:32:59;7.50;99.90
13328;DHT22;6733;51.044;3.746;2023-04-09T03:35:25;7.50;99.90
13328;DHT22;6733;51.044;3.746;2023-04-09T03:37:51;7.50;99.90
13328;DHT22;6733;51.044;3.746;2023-04-09T03:40:18;7.40;99.90
13328;DHT22;6733;51.044;3.746;2023-04-09T03:42:44;7.40;99.90
13328;DHT22;6733;51.044;3.746;2023-04-09T03:45:10;7.40;99.90
13328;DHT22;6733;51.044;3.746;2023-04-09T03:47:36;7.40;99.90
13328;DHT22;6733;51.044;3.746;2023-04-09T03:50:02;7.40;99.90
13328;DHT22;6733;51.044;3.746;2023-04-09T03:52:28;7.40;99.90
13328;DHT22;6733;51.044;3.746;2023-04-09T03:54:54;7.40;99.90
13328;DHT22;6733;51.044;3.746;2023-04-09T03:57:20;7.30;99.90
13328;DHT22;6733;51.044;3.746;2023-04-09T03:59:47;7.30;99.90
13328;DHT22;6733;51.044;3.746;2023-04-09T04:02:13;7.40;99.90
13328;DHT22;6733;51.044;3.746;2023-04-09T04:04:39;7.30;99.90
13328;DHT22;6733;51.044;3.746;2023-04-09T04:07:06;7.30;99.90
13328;DHT22;6733;51.044;3.746;2023-04-09T04:09:33;7.30;99.90
13328;DHT22;6733;51.044;3.746;2023-04-09T04:12:00;7.30;99.90
13328;DHT22;6733;51.044;3.746;2023-04-09T04:14:27;7.30;99.90
13328;DHT22;6733;51.044;3.746;2023-04-09T04:16:53;7.30;99.90
13328;DHT22;6733;51.044;3.746;2023-04-09T04:19:19;7.30;99.90
13328;DHT22;6733;51.044;3.746;2023-04-09T04:21:46;7.30;99.90
13328;DHT22;6733;51.044;3.746;2023-04-09T04:24:12;7.30;99.90
13328;DHT22;6733;51.044;3.746;2023-04-09T04:26:39;7.30;99.90
13328;DHT22;6733;51.044;3.746;2023-04-09T04:29:05;7.30;99.90
13328;DHT22;6733;51.044;3.746;2023-04-09T04:31:31;7.30;99.90
13328;DHT22;6733;51.044;3.746;2023-04-09T04:33:57;7.30;99.90
13328;DHT22;6733;51.044;3.746;2023-04-09T04:36:23;7.30;99.90
13328;DHT22;6733;51.044;3.746;2023-04-09T04:38:49;7.30;99.90
13328;DHT22;6733;51.044;3.746;2023-04-09T04:41:16;7.30;99.90
13328;DHT22;6733;51.044;3.746;2023-04-09T04:43:42;7.20;99.90
13328;DHT22;6733;51.044;3.746;2023-04-09T04:46:08;7.20;99.90
13328;DHT22;6733;51.044;3.746;2023-04-09T04:48:34;7.20;99.90
13328;DHT22;6733;51.044;3.746;2023-04-09T04:51:01;7.20;99.90
13328;DHT22;6733;51.044;3.746;2023-04-09T04:53:27;7.20;99.90
13328;DHT22;6733;51.044;3.746;2023-04-09T04:55:53;7.20;99.90
13328;DHT22;6733;51.044;3.746;2023-04-09T04:58:20;7.20;99.90
13328;DHT22;6733;51.044;3.746;2023-04-09T05:00:46;7.20;99.90
13328;DHT22;6733;51.044;3.746;2023-04-09T05:03:13;7.20;99.90
13328;DHT22;6733;51.044;3.746;2023-04-09T05:05:39;7.30;99.90
13328;DHT22;6733;51.044;3.746;2023-04-09T05:08:06;7.30;99.90
13328;DHT22;6733;51.044;3.746;2023-04-09T05:10:32;7.30;99.90
13328;DHT22;6733;51.044;3.746;2023-04-09T05:12:58;7.30;99.90
13328;DHT22;6733;51.044;3.746;2023-04-09T05:15:24;7.30;99.90
13328;DHT22;6733;51.044;3.746;2023-04-09T05:17:51;7.30;99.90
13328;DHT22;6733;51.044;3.746;2023-04-09T05:20:17;7.30;99.90
13328;DHT22;6733;51.044;3.746;2023-04-09T05:22:44;7.30;99.90
13328;DHT22;6733;51.044;3.746;2023-04-09T05:25:10;7.40;99.90
13328;DHT22;6733;51.044;3.746;2023-04-09T05:27:36;7.40;99.90
13328;DHT22;6733;51.044;3.746;2023-04-09T05:30:03;7.40;99.90
13328;DHT22;6733;51.044;3.746;2023-04-09T05:32:29;7.40;99.90
13328;DHT22;6733;51.044;3.746;2023-04-09T05:34:55;7.50;99.90
13328;DHT22;6733;51.044;3.746;2023-04-09T05:37:22;7.50;99.90
13328;DHT22;6733;51.044;3.746;2023-04-09T05:39:48;7.50;99.90
13328;DHT22;6733;51.044;3.746;2023-04-09T05:42:14;7.50;99.90
13328;DHT22;6733;51.044;3.746;2023-04-09T05:44:40;7.60;99.90
13328;DHT22;6733;51.044;3.746;2023-04-09T05:47:07;7.60;99.90
13328;DHT22;6733;51.044;3.746;2023-04-09T05:49:33;7.70;99.90
13328;DHT22;6733;51.044;3.746;2023-04-09T05:51:59;7.70;99.90
13328;DHT22;6733;51.044;3.746;2023-04-09T05:54:26;7.70;99.90
13328;DHT22;6733;51.044;3.746;2023-04-09T05:56:52;7.80;99.90
13328;DHT22;6733;51.044;3.746;2023-04-09T05:59:18;7.80;99.90
13328;DHT22;6733;51.044;3.746;2023-04-09T06:01:45;7.90;99.90
13328;DHT22;6733;51.044;3.746;2023-04-09T06:04:11;7.90;99.90
13328;DHT22;6733;51.044;3.746;2023-04-09T06:06:38;8.00;99.90
13328;DHT22;6733;51.044;3.746;2023-04-09T06:09:04;8.00;99.90
13328;DHT22;6733;51.044;3.746;2023-04-09T06:11:31;8.10;99.90
13328;DHT22;6733;51.044;3.746;2023-04-09T06:13:58;8.20;99.90
13328;DHT22;6733;51.044;3.746;2023-04-09T06:16:25;8.30;99.90
13328;DHT22;6733;51.044;3.746;2023-04-09T06:18:52;8.30;99.90
13328;DHT22;6733;51.044;3.746;2023-04-09T06:21:19;8.40;99.90
13328;DHT22;6733;51.044;3.746;2023-04-09T06:23:45;8.40;99.90
13328;DHT22;6733;51.044;3.746;2023-04-09T06:26:12;8.50;99.90
13328;DHT22;6733;51.044;3.746;2023-04-09T06:28:39;8.60;99.90
13328;DHT22;6733;51.044;3.746;2023-04-09T06:31:06;8.70;99.90
13328;DHT22;6733;51.044;3.746;2023-04-09T06:33:32;8.70;99.90
13328;DHT22;6733;51.044;3.746;2023-04-09T06:35:58;8.80;99.90
13328;DHT22;6733;51.044;3.746;2023-04-09T06:38:26;8.90;99.90
13328;DHT22;6733;51.044;3.746;2023-04-09T06:40:55;8.90;99.90
13328;DHT22;6733;51.044;3.746;2023-04-09T06:43:22;9.00;99.90
13328;DHT22;6733;51.044;3.746;2023-04-09T06:45:49;9.00;99.90
13328;DHT22;6733;51.044;3.746;2023-04-09T06:48:15;9.10;99.90
13328;DHT22;6733;51.044;3.746;2023-04-09T06:50:42;9.20;99.90
13328;DHT22;6733;51.044;3.746;2023-04-09T06:53:08;9.30;99.90
13328;DHT22;6733;51.044;3.746;2023-04-09T06:55:35;9.30;99.90
13328;DHT22;6733;51.044;3.746;2023-04-09T06:58:01;9.40;99.90
13328;DHT22;6733;51.044;3.746;2023-04-09T07:00:28;9.50;99.90
13328;DHT22;6733;51.044;3.746;2023-04-09T07:02:54;9.60;99.90
13328;DHT22;6733;51.044;3.746;2023-04-09T07:05:21;9.30;99.90
13328;DHT22;6733;51.044;3.746;2023-04-09T07:07:47;9.20;99.90
13328;DHT22;6733;51.044;3.746;2023-04-09T07:10:13;9.10;99.90
13328;DHT22;6733;51.044;3.746;2023-04-09T07:12:40;9.00;99.90
13328;DHT22;6733;51.044;3.746;2023-04-09T07:15:07;9.10;99.90
13328;DHT22;6733;51.044;3.746;2023-04-09T07:17:33;9.10;99.90
13328;DHT22;6733;51.044;3.746;2023-04-09T07:20:00;9.20;99.90
13328;DHT22;6733;51.044;3.746;2023-04-09T07:22:28;9.30;99.90
13328;DHT22;6733;51.044;3.746;2023-04-09T07:24:55;9.30;99.90
13328;DHT22;6733;51.044;3.746;2023-04-09T07:27:22;9.20;99.90
13328;DHT22;6733;51.044;3.746;2023-04-09T07:29:49;9.20;99.90
13328;DHT22;6733;51.044;3.746;2023-04-09T07:32:15;9.40;99.90
13328;DHT22;6733;51.044;3.746;2023-04-09T07:34:43;9.60;99.90
13328;DHT22;6733;51.044;3.746;2023-04-09T07:37:09;9.70;99.90
13328;DHT22;6733;51.044;3.746;2023-04-09T07:39:36;9.70;99.90
13328;DHT22;6733;51.044;3.746;2023-04-09T07:42:03;9.70;99.90
13328;DHT22;6733;51.044;3.746;2023-04-09T07:44:36;9.60;99.90
13328;DHT22;6733;51.044;3.746;2023-04-09T07:47:03;9.90;99.90
13328;DHT22;6733;51.044;3.746;2023-04-09T07:49:30;10.00;99.90
13328;DHT22;6733;51.044;3.746;2023-04-09T07:51:58;10.10;99.90
13328;DHT22;6733;51.044;3.746;2023-04-09T07:54:25;10.30;99.90
13328;DHT22;6733;51.044;3.746;2023-04-09T07:56:51;10.50;99.90
13328;DHT22;6733;51.044;3.746;2023-04-09T07:59:17;10.60;99.90
13328;DHT22;6733;51.044;3.746;2023-04-09T08:01:44;10.80;99.90
13328;DHT22;6733;51.044;3.746;2023-04-09T08:04:10;10.80;99.90
13328;DHT22;6733;51.044;3.746;2023-04-09T08:06:38;10.70;99.90
13328;DHT22;6733;51.044;3.746;2023-04-09T08:09:04;10.90;99.90
13328;DHT22;6733;51.044;3.746;2023-04-09T08:11:31;11.20;99.90
13328;DHT22;6733;51.044;3.746;2023-04-09T08:13:57;11.30;99.90
13328;DHT22;6733;51.044;3.746;2023-04-09T08:16:27;11.40;99.90
13328;DHT22;6733;51.044;3.746;2023-04-09T08:18:55;11.50;99.90
13328;DHT22;6733;51.044;3.746;2023-04-09T08:21:22;11.70;99.90
13328;DHT22;6733;51.044;3.746;2023-04-09T08:23:48;11.70;99.90
13328;DHT22;6733;51.044;3.746;2023-04-09T08:26:15;11.90;99.90
13328;DHT22;6733;51.044;3.746;2023-04-09T08:28:41;12.00;99.90
13328;DHT22;6733;51.044;3.746;2023-04-09T08:31:10;12.30;99.90
13328;DHT22;6733;51.044;3.746;2023-04-09T08:33:36;12.60;99.90
13328;DHT22;6733;51.044;3.746;2023-04-09T08:36:07;12.60;99.90
13328;DHT22;6733;51.044;3.746;2023-04-09T08:38:34;12.70;99.90
13328;DHT22;6733;51.044;3.746;2023-04-09T08:41:00;12.80;99.90
13328;DHT22;6733;51.044;3.746;2023-04-09T08:43:27;13.00;99.90
13328;DHT22;6733;51.044;3.746;2023-04-09T08:45:55;12.90;99.90
13328;DHT22;6733;51.044;3.746;2023-04-09T08:48:24;13.20;99.90
13328;DHT22;6733;51.044;3.746;2023-04-09T08:50:52;13.20;99.90
13328;DHT22;6733;51.044;3.746;2023-04-09T08:53:20;13.40;99.90
13328;DHT22;6733;51.044;3.746;2023-04-09T08:55:49;13.60;99.90
13328;DHT22;6733;51.044;3.746;2023-04-09T08:58:17;13.70;99.90
13328;DHT22;6733;51.044;3.746;2023-04-09T09:00:43;13.90;99.90
13328;DHT22;6733;51.044;3.746;2023-04-09T09:03:11;14.10;99.90
13328;DHT22;6733;51.044;3.746;2023-04-09T09:05:42;14.00;99.90
13328;DHT22;6733;51.044;3.746;2023-04-09T09:08:21;13.90;99.90
13328;DHT22;6733;51.044;3.746;2023-04-09T09:10:48;14.30;99.90
13328;DHT22;6733;51.044;3.746;2023-04-09T09:13:22;14.30;99.90
13328;DHT22;6733;51.044;3.746;2023-04-09T09:15:51;14.60;99.90
13328;DHT22;6733;51.044;3.746;2023-04-09T09:18:37;14.60;99.90
13328;DHT22;6733;51.044;3.746;2023-04-09T09:21:15;14.70;99.90
13328;DHT22;6733;51.044;3.746;2023-04-09T09:23:43;14.60;99.90
13328;DHT22;6733;51.044;3.746;2023-04-09T09:26:24;14.20;99.90
13328;DHT22;6733;51.044;3.746;2023-04-09T09:28:51;14.20;99.90
13328;DHT22;6733;51.044;3.746;2023-04-09T09:31:19;14.40;99.90
13328;DHT22;6733;51.044;3.746;2023-04-09T09:33:47;14.50;99.90
13328;DHT22;6733;51.044;3.746;2023-04-09T09:36:14;14.10;99.90
13328;DHT22;6733;51.044;3.746;2023-04-09T09:38:55;14.50;99.90
13328;DHT22;6733;51.044;3.746;2023-04-09T09:41:25;15.00;99.90
13328;DHT22;6733;51.044;3.746;2023-04-09T09:43:51;15.20;99.90
13328;DHT22;6733;51.044;3.746;2023-04-09T09:46:20;15.60;99.90
13328;DHT22;6733;51.044;3.746;2023-04-09T09:48:46;15.60;99.90
13328;DHT22;6733;51.044;3.746;2023-04-09T09:51:14;15.40;99.90
13328;DHT22;6733;51.044;3.746;2023-04-09T09:53:43;15.40;99.90
13328;DHT22;6733;51.044;3.746;2023-04-09T09:56:20;15.50;99.90
13328;DHT22;6733;51.044;3.746;2023-04-09T09:59:05;15.60;99.90
13328;DHT22;6733;51.044;3.746;2023-04-09T10:01:32;15.80;99.90
13328;DHT22;6733;51.044;3.746;2023-04-09T10:04:00;15.80;99.90
13328;DHT22;6733;51.044;3.746;2023-04-09T10:06:27;15.70;99.90
13328;DHT22;6733;51.044;3.746;2023-04-09T10:09:02;15.80;99.90
13328;DHT22;6733;51.044;3.746;2023-04-09T10:11:31;16.00;99.90
13328;DHT22;6733;51.044;3.746;2023-04-09T10:13:58;16.20;99.90
13328;DHT22;6733;51.044;3.746;2023-04-09T10:16:26;16.60;99.90
13328;DHT22;6733;51.044;3.746;2023-04-09T10:18:56;16.40;99.90
13328;DHT22;6733;51.044;3.746;2023-04-09T10:21:35;16.40;99.90
13328;DHT22;6733;51.044;3.746;2023-04-09T10:24:04;16.30;99.90
13328;DHT22;6733;51.044;3.746;2023-04-09T10:26:39;16.30;99.90
13328;DHT22;6733;51.044;3.746;2023-04-09T10:29:07;16.30;99.90
13328;DHT22;6733;51.044;3.746;2023-04-09T10:32:03;16.60;99.90
13328;DHT22;6733;51.044;3.746;2023-04-09T10:34:34;16.80;99.90
13328;DHT22;6733;51.044;3.746;2023-04-09T10:37:01;16.80;99.90
13328;DHT22;6733;51.044;3.746;2023-04-09T10:39:31;16.50;99.90
13328;DHT22;6733;51.044;3.746;2023-04-09T10:41:59;16.80;99.90
13328;DHT22;6733;51.044;3.746;2023-04-09T10:44:27;17.00;99.90
13328;DHT22;6733;51.044;3.746;2023-04-09T10:46:57;16.60;99.90
13328;DHT22;6733;51.044;3.746;2023-04-09T10:49:25;17.10;99.90
13328;DHT22;6733;51.044;3.746;2023-04-09T10:52:01;16.80;99.90
13328;DHT22;6733;51.044;3.746;2023-04-09T10:59:38;17.10;99.90
13328;DHT22;6733;51.044;3.746;2023-04-09T11:02:09;17.00;99.90
13328;DHT22;6733;51.044;3.746;2023-04-09T11:07:32;17.00;99.90
13328;DHT22;6733;51.044;3.746;2023-04-09T11:10:00;17.20;99.90
13328;DHT22;6733;51.044;3.746;2023-04-09T11:12:26;17.60;99.90
13328;DHT22;6733;51.044;3.746;2023-04-09T11:14:52;18.00;99.90
13328;DHT22;6733;51.044;3.746;2023-04-09T11:17:18;17.70;99.90
13328;DHT22;6733;51.044;3.746;2023-04-09T11:19:45;17.60;99.90
13328;DHT22;6733;51.044;3.746;2023-04-09T11:22:11;17.30;99.90
13328;DHT22;6733;51.044;3.746;2023-04-09T11:24:41;16.80;99.90
13328;DHT22;6733;51.044;3.746;2023-04-09T11:27:08;16.70;99.90
13328;DHT22;6733;51.044;3.746;2023-04-09T11:29:35;17.10;99.90
13328;DHT22;6733;51.044;3.746;2023-04-09T11:32:01;17.40;99.90
13328;DHT22;6733;51.044;3.746;2023-04-09T11:34:33;17.40;99.90
13328;DHT22;6733;51.044;3.746;2023-04-09T11:36:59;17.80;99.90
13328;DHT22;6733;51.044;3.746;2023-04-09T11:39:30;17.70;99.90
13328;DHT22;6733;51.044;3.746;2023-04-09T11:41:56;17.70;99.90
13328;DHT22;6733;51.044;3.746;2023-04-09T11:44:22;18.20;99.90
13328;DHT22;6733;51.044;3.746;2023-04-09T11:46:48;18.40;99.90
13328;DHT22;6733;51.044;3.746;2023-04-09T11:49:15;18.10;99.90
13328;DHT22;6733;51.044;3.746;2023-04-09T11:51:42;17.90;99.90
13328;DHT22;6733;51.044;3.746;2023-04-09T11:54:08;17.70;99.90
13328;DHT22;6733;51.044;3.746;2023-04-09T11:56:36;17.40;99.90
13328;DHT22;6733;51.044;3.746;2023-04-09T11:59:02;17.60;99.90
13328;DHT22;6733;51.044;3.746;2023-04-09T12:01:32;17.90;99.90
13328;DHT22;6733;51.044;3.746;2023-04-09T12:03:59;18.00;99.90
13328;DHT22;6733;51.044;3.746;2023-04-09T12:06:26;17.90;99.90
13328;DHT22;6733;51.044;3.746;2023-04-09T12:08:55;18.10;99.90
13328;DHT22;6733;51.044;3.746;2023-04-09T12:11:27;18.00;99.90
13328;DHT22;6733;51.044;3.746;2023-04-09T12:14:03;17.90;99.90
13328;DHT22;6733;51.044;3.746;2023-04-09T12:16:31;17.50;99.90
13328;DHT22;6733;51.044;3.746;2023-04-09T12:19:16;17.80;99.90
13328;DHT22;6733;51.044;3.746;2023-04-09T12:21:52;18.50;99.90
13328;DHT22;6733;51.044;3.746;2023-04-09T12:24:24;18.50;99.90
13328;DHT22;6733;51.044;3.746;2023-04-09T12:26:51;18.70;99.90
13328;DHT22;6733;51.044;3.746;2023-04-09T12:29:19;18.10;99.90
13328;DHT22;6733;51.044;3.746;2023-04-09T12:31:46;18.00;99.90
13328;DHT22;6733;51.044;3.746;2023-04-09T12:34:13;18.10;99.90
13328;DHT22;6733;51.044;3.746;2023-04-09T12:36:39;18.00;99.90
13328;DHT22;6733;51.044;3.746;2023-04-09T12:39:09;18.20;99.90
13328;DHT22;6733;51.044;3.746;2023-04-09T12:41:35;18.30;99.90
13328;DHT22;6733;51.044;3.746;2023-04-09T12:44:01;18.30;99.90
13328;DHT22;6733;51.044;3.746;2023-04-09T12:46:28;18.40;99.90
13328;DHT22;6733;51.044;3.746;2023-04-09T12:48:54;18.20;99.90
13328;DHT22;6733;51.044;3.746;2023-04-09T12:51:20;18.40;99.90
13328;DHT22;6733;51.044;3.746;2023-04-09T12:53:47;17.90;99.90
13328;DHT22;6733;51.044;3.746;2023-04-09T12:56:13;17.60;99.90
13328;DHT22;6733;51.044;3.746;2023-04-09T12:58:40;17.80;99.90
13328;DHT22;6733;51.044;3.746;2023-04-09T13:01:06;17.60;99.90
13328;DHT22;6733;51.044;3.746;2023-04-09T13:03:32;17.90;99.90
13328;DHT22;6733;51.044;3.746;2023-04-09T13:05:58;17.70;99.90
13328;DHT22;6733;51.044;3.746;2023-04-09T13:08:24;18.00;99.90
13328;DHT22;6733;51.044;3.746;2023-04-09T13:10:50;18.40;99.90
13328;DHT22;6733;51.044;3.746;2023-04-09T13:13:16;17.60;99.90
13328;DHT22;6733;51.044;3.746;2023-04-09T13:15:42;17.40;99.90
13328;DHT22;6733;51.044;3.746;2023-04-09T13:18:09;17.60;99.90
13328;DHT22;6733;51.044;3.746;2023-04-09T13:20:36;18.40;99.90
13328;DHT22;6733;51.044;3.746;2023-04-09T13:23:02;18.90;99.90
13328;DHT22;6733;51.044;3.746;2023-04-09T13:25:28;19.10;99.90
13328;DHT22;6733;51.044;3.746;2023-04-09T13:27:54;18.60;99.90
13328;DHT22;6733;51.044;3.746;2023-04-09T13:30:21;18.50;99.90
13328;DHT22;6733;51.044;3.746;2023-04-09T13:32:47;18.20;99.90
13328;DHT22;6733;51.044;3.746;2023-04-09T13:35:14;18.10;99.90
13328;DHT22;6733;51.044;3.746;2023-04-09T13:37:40;18.40;99.90
13328;DHT22;6733;51.044;3.746;2023-04-09T13:40:07;18.20;99.90
13328;DHT22;6733;51.044;3.746;2023-04-09T13:42:36;17.60;99.90
13328;DHT22;6733;51.044;3.746;2023-04-09T13:45:03;17.80;99.90
13328;DHT22;6733;51.044;3.746;2023-04-09T13:47:29;17.90;99.90
13328;DHT22;6733;51.044;3.746;2023-04-09T13:49:55;18.00;99.90
13328;DHT22;6733;51.044;3.746;2023-04-09T13:52:22;18.30;99.90
13328;DHT22;6733;51.044;3.746;2023-04-09T13:54:49;18.20;99.90
13328;DHT22;6733;51.044;3.746;2023-04-09T13:57:15;18.70;99.90
13328;DHT22;6733;51.044;3.746;2023-04-09T13:59:41;18.30;99.90
13328;DHT22;6733;51.044;3.746;2023-04-09T14:02:08;18.60;99.90
13328;DHT22;6733;51.044;3.746;2023-04-09T14:04:34;19.10;99.90
13328;DHT22;6733;51.044;3.746;2023-04-09T14:07:00;19.20;99.90
13328;DHT22;6733;51.044;3.746;2023-04-09T14:09:26;18.90;99.90
13328;DHT22;6733;51.044;3.746;2023-04-09T14:11:52;19.10;99.90
13328;DHT22;6733;51.044;3.746;2023-04-09T14:14:20;19.60;99.90
13328;DHT22;6733;51.044;3.746;2023-04-09T14:16:46;19.90;99.90
13328;DHT22;6733;51.044;3.746;2023-04-09T14:19:13;19.60;99.90
13328;DHT22;6733;51.044;3.746;2023-04-09T14:21:39;19.70;99.90
13328;DHT22;6733;51.044;3.746;2023-04-09T14:24:06;19.90;99.90
13328;DHT22;6733;51.044;3.746;2023-04-09T14:26:32;20.10;99.90
13328;DHT22;6733;51.044;3.746;2023-04-09T14:28:58;20.30;99.90
13328;DHT22;6733;51.044;3.746;2023-04-09T14:31:24;20.10;99.90
13328;DHT22;6733;51.044;3.746;2023-04-09T14:33:51;20.10;99.90
13328;DHT22;6733;51.044;3.746;2023-04-09T14:36:17;19.90;99.90
13328;DHT22;6733;51.044;3.746;2023-04-09T14:38:43;20.00;99.90
13328;DHT22;6733;51.044;3.746;2023-04-09T14:41:09;20.10;99.90
13328;DHT22;6733;51.044;3.746;2023-04-09T14:43:35;20.50;99.70
13328;DHT22;6733;51.044;3.746;2023-04-09T14:46:01;20.80;99.70
13328;DHT22;6733;51.044;3.746;2023-04-09T14:48:28;21.30;99.20
13328;DHT22;6733;51.044;3.746;2023-04-09T14:50:55;21.40;98.70
13328;DHT22;6733;51.044;3.746;2023-04-09T14:53:22;21.10;98.70
13328;DHT22;6733;51.044;3.746;2023-04-09T14:55:48;20.90;99.30
13328;DHT22;6733;51.044;3.746;2023-04-09T14:58:14;21.20;98.80
13328;DHT22;6733;51.044;3.746;2023-04-09T15:00:41;21.20;98.70
13328;DHT22;6733;51.044;3.746;2023-04-09T15:03:10;21.40;98.30
13328;DHT22;6733;51.044;3.746;2023-04-09T15:05:36;21.20;97.90
13328;DHT22;6733;51.044;3.746;2023-04-09T15:08:03;20.90;98.80
13328;DHT22;6733;51.044;3.746;2023-04-09T15:10:29;20.60;98.80
13328;DHT22;6733;51.044;3.746;2023-04-09T15:12:55;20.20;99.10
13328;DHT22;6733;51.044;3.746;2023-04-09T15:15:21;19.70;99.60
13328;DHT22;6733;51.044;3.746;2023-04-09T15:17:47;19.40;99.90
13328;DHT22;6733;51.044;3.746;2023-04-09T15:20:13;19.80;99.70
13328;DHT22;6733;51.044;3.746;2023-04-09T15:22:40;19.80;99.00
13328;DHT22;6733;51.044;3.746;2023-04-09T15:25:06;19.50;99.80
13328;DHT22;6733;51.044;3.746;2023-04-09T15:27:32;20.10;99.90
13328;DHT22;6733;51.044;3.746;2023-04-09T15:29:58;20.40;99.10
13328;DHT22;6733;51.044;3.746;2023-04-09T15:32:24;20.10;98.70
13328;DHT22;6733;51.044;3.746;2023-04-09T15:34:51;19.50;99.00
13328;DHT22;6733;51.044;3.746;2023-04-09T15:37:17;19.10;99.40
13328;DHT22;6733;51.044;3.746;2023-04-09T15:39:43;19.40;99.90
13328;DHT22;6733;51.044;3.746;2023-04-09T15:42:09;20.10;99.50
13328;DHT22;6733;51.044;3.746;2023-04-09T15:44:35;20.70;98.50
13328;DHT22;6733;51.044;3.746;2023-04-09T15:47:02;20.90;98.00
13328;DHT22;6733;51.044;3.746;2023-04-09T15:49:28;21.60;98.00
13328;DHT22;6733;51.044;3.746;2023-04-09T15:51:54;21.50;96.70
13328;DHT22;6733;51.044;3.746;2023-04-09T15:54:20;21.40;97.10
13328;DHT22;6733;51.044;3.746;2023-04-09T15:56:46;22.00;96.50
13328;DHT22;6733;51.044;3.746;2023-04-09T15:59:12;21.90;96.60
13328;DHT22;6733;51.044;3.746;2023-04-09T16:01:38;22.30;96.30
13328;DHT22;6733;51.044;3.746;2023-04-09T16:04:05;22.50;95.40
13328;DHT22;6733;51.044;3.746;2023-04-09T16:06:33;23.50;94.50
13328;DHT22;6733;51.044;3.746;2023-04-09T16:09:00;22.90;94.00
13328;DHT22;6733;51.044;3.746;2023-04-09T16:11:27;22.60;94.00
13328;DHT22;6733;51.044;3.746;2023-04-09T16:13:53;22.10;94.40
13328;DHT22;6733;51.044;3.746;2023-04-09T16:16:21;22.00;94.70